sensor_id;sensor_type;location;lat;lon;timestamp;P1;durP1;ratioP1;P2;durP2;ratioP2
51907;SDS011;39320;53.214;6.556;2023-07-22T00:02:05;5.80;;;3.17;;
51907;SDS011;39320;53.214;6.556;2023-07-22T00:04:31;4.32;;;2.85;;
51907;SDS011;39320;53.214;6.556;2023-07-22T00:06:57;5.65;;;3.03;;
51907;SDS011;39320;53.214;6.556;2023-07-22T00:09:22;5.72;;;3.28;;
51907;SDS011;39320;53.214;6.556;2023-07-22T00:11:49;4.82;;;3.33;;
51907;SDS011;39320;53.214;6.556;2023-07-22T00:14:15;5.97;;;2.97;;
51907;SDS011;39320;53.214;6.556;2023-07-22T00:16:41;4.97;;;3.17;;
51907;SDS011;39320;53.214;6.556;2023-07-22T00:19:07;4.30;;;3.22;;
51907;SDS011;39320;53.214;6.556;2023-07-22T00:21:33;5.30;;;2.80;;
51907;SDS011;39320;53.214;6.556;2023-07-22T00:23:59;3.97;;;3.08;;
51907;SDS011;39320;53.214;6.556;2023-07-22T00:26:25;5.93;;;3.35;;
51907;SDS011;39320;53.214;6.556;2023-07-22T00:28:52;5.93;;;3.22;;
51907;SDS011;39320;53.214;6.556;2023-07-22T00:31:17;6.25;;;3.03;;
51907;SDS011;39320;53.214;6.556;2023-07-22T00:33:43;5.10;;;3.20;;
51907;SDS011;39320;53.214;6.556;2023-07-22T00:36:09;3.70;;;2.60;;
51907;SDS011;39320;53.214;6.556;2023-07-22T00:38:35;10.55;;;3.00;;
51907;SDS011;39320;53.214;6.556;2023-07-22T00:41:00;5.10;;;2.97;;
51907;SDS011;39320;53.214;6.556;2023-07-22T00:43:29;4.63;;;2.90;;
51907;SDS011;39320;53.214;6.556;2023-07-22T00:45:55;3.53;;;2.75;;
51907;SDS011;39320;53.214;6.556;2023-07-22T00:48:21;3.80;;;2.70;;
51907;SDS011;39320;53.214;6.556;2023-07-22T00:50:48;4.18;;;3.00;;
51907;SDS011;39320;53.214;6.556;2023-07-22T00:53:13;5.50;;;3.35;;
51907;SDS011;39320;53.214;6.556;2023-07-22T00:55:39;4.10;;;2.80;;
51907;SDS011;39320;53.214;6.556;2023-07-22T00:58:06;3.92;;;3.00;;
51907;SDS011;39320;53.214;6.556;2023-07-22T01:00:32;4.55;;;2.80;;
51907;SDS011;39320;53.214;6.556;2023-07-22T01:02:58;3.97;;;3.00;;
51907;SDS011;39320;53.214;6.556;2023-07-22T01:05:25;4.35;;;2.92;;
51907;SDS011;39320;53.214;6.556;2023-07-22T01:07:53;3.85;;;2.97;;
51907;SDS011;39320;53.214;6.556;2023-07-22T01:10:18;4.80;;;3.05;;
51907;SDS011;39320;53.214;6.556;2023-07-22T01:12:45;4.60;;;3.03;;
51907;SDS011;39320;53.214;6.556;2023-07-22T01:15:10;3.25;;;2.50;;
51907;SDS011;39320;53.214;6.556;2023-07-22T01:17:37;6.57;;;3.33;;
51907;SDS011;39320;53.214;6.556;2023-07-22T01:20:04;4.82;;;2.95;;
51907;SDS011;39320;53.214;6.556;2023-07-22T01:22:31;4.07;;;2.67;;
51907;SDS011;39320;53.214;6.556;2023-07-22T01:24:58;4.70;;;2.72;;
51907;SDS011;39320;53.214;6.556;2023-07-22T01:27:24;5.35;;;2.80;;
51907;SDS011;39320;53.214;6.556;2023-07-22T01:29:51;4.45;;;3.05;;
51907;SDS011;39320;53.214;6.556;2023-07-22T01:32:17;5.40;;;3.05;;
51907;SDS011;39320;53.214;6.556;2023-07-22T01:34:43;4.05;;;3.00;;
51907;SDS011;39320;53.214;6.556;2023-07-22T01:37:09;3.97;;;2.88;;
51907;SDS011;39320;53.214;6.556;2023-07-22T01:39:35;3.83;;;2.47;;
51907;SDS011;39320;53.214;6.556;2023-07-22T01:42:01;4.18;;;3.05;;
51907;SDS011;39320;53.214;6.556;2023-07-22T01:44:27;5.30;;;3.05;;
51907;SDS011;39320;53.214;6.556;2023-07-22T01:46:53;4.07;;;2.78;;
51907;SDS011;39320;53.214;6.556;2023-07-22T01:49:19;3.80;;;3.10;;
51907;SDS011;39320;53.214;6.556;2023-07-22T01:51:45;4.70;;;3.35;;
51907;SDS011;39320;53.214;6.556;2023-07-22T01:54:10;5.07;;;2.85;;
51907;SDS011;39320;53.214;6.556;2023-07-22T01:56:37;5.18;;;2.78;;
51907;SDS011;39320;53.214;6.556;2023-07-22T01:59:04;4.15;;;2.70;;
51907;SDS011;39320;53.214;6.556;2023-07-22T02:01:30;4.50;;;2.30;;
51907;SDS011;39320;53.214;6.556;2023-07-22T02:03:56;5.82;;;3.03;;
51907;SDS011;39320;53.214;6.556;2023-07-22T02:06:22;3.50;;;2.00;;
51907;SDS011;39320;53.214;6.556;2023-07-22T02:08:48;5.75;;;2.55;;
51907;SDS011;39320;53.214;6.556;2023-07-22T02:11:14;5.10;;;2.92;;
51907;SDS011;39320;53.214;6.556;2023-07-22T02:13:41;4.68;;;2.80;;
51907;SDS011;39320;53.214;6.556;2023-07-22T02:16:07;4.65;;;3.08;;
51907;SDS011;39320;53.214;6.556;2023-07-22T02:18:36;5.70;;;2.70;;
51907;SDS011;39320;53.214;6.556;2023-07-22T02:21:02;3.63;;;2.72;;
51907;SDS011;39320;53.214;6.556;2023-07-22T02:23:28;5.53;;;2.63;;
51907;SDS011;39320;53.214;6.556;2023-07-22T02:25:54;5.18;;;2.58;;
51907;SDS011;39320;53.214;6.556;2023-07-22T02:28:20;3.65;;;2.17;;
51907;SDS011;39320;53.214;6.556;2023-07-22T02:30:48;2.65;;;2.08;;
51907;SDS011;39320;53.214;6.556;2023-07-22T02:33:14;3.92;;;2.20;;
51907;SDS011;39320;53.214;6.556;2023-07-22T02:35:41;4.35;;;2.85;;
51907;SDS011;39320;53.214;6.556;2023-07-22T02:38:07;4.03;;;2.15;;
51907;SDS011;39320;53.214;6.556;2023-07-22T02:40:34;4.85;;;3.08;;
51907;SDS011;39320;53.214;6.556;2023-07-22T02:43:00;3.10;;;2.30;;
51907;SDS011;39320;53.214;6.556;2023-07-22T02:45:26;3.00;;;1.88;;
51907;SDS011;39320;53.214;6.556;2023-07-22T02:47:52;3.50;;;2.20;;
51907;SDS011;39320;53.214;6.556;2023-07-22T02:50:17;4.00;;;2.25;;
51907;SDS011;39320;53.214;6.556;2023-07-22T02:52:43;4.50;;;2.83;;
51907;SDS011;39320;53.214;6.556;2023-07-22T02:55:16;4.70;;;2.85;;
51907;SDS011;39320;53.214;6.556;2023-07-22T02:57:45;3.67;;;2.33;;
51907;SDS011;39320;53.214;6.556;2023-07-22T03:00:12;4.00;;;2.30;;
51907;SDS011;39320;53.214;6.556;2023-07-22T03:02:39;3.70;;;2.13;;
51907;SDS011;39320;53.214;6.556;2023-07-22T03:05:05;3.53;;;2.20;;
51907;SDS011;39320;53.214;6.556;2023-07-22T03:07:36;3.28;;;2.10;;
51907;SDS011;39320;53.214;6.556;2023-07-22T03:10:06;3.78;;;2.42;;
51907;SDS011;39320;53.214;6.556;2023-07-22T03:12:33;4.38;;;2.58;;
51907;SDS011;39320;53.214;6.556;2023-07-22T03:15:00;3.80;;;2.70;;
51907;SDS011;39320;53.214;6.556;2023-07-22T03:17:26;4.07;;;2.25;;
51907;SDS011;39320;53.214;6.556;2023-07-22T03:19:52;4.32;;;2.63;;
51907;SDS011;39320;53.214;6.556;2023-07-22T03:22:18;4.72;;;2.85;;
51907;SDS011;39320;53.214;6.556;2023-07-22T03:24:44;3.40;;;2.38;;
51907;SDS011;39320;53.214;6.556;2023-07-22T03:27:11;5.30;;;2.97;;
51907;SDS011;39320;53.214;6.556;2023-07-22T03:29:37;3.58;;;2.63;;
51907;SDS011;39320;53.214;6.556;2023-07-22T03:32:03;4.30;;;2.95;;
51907;SDS011;39320;53.214;6.556;2023-07-22T03:34:30;4.78;;;3.20;;
51907;SDS011;39320;53.214;6.556;2023-07-22T03:36:56;3.25;;;2.75;;
51907;SDS011;39320;53.214;6.556;2023-07-22T03:39:22;3.22;;;2.30;;
51907;SDS011;39320;53.214;6.556;2023-07-22T03:41:48;3.63;;;2.65;;
51907;SDS011;39320;53.214;6.556;2023-07-22T03:44:13;3.08;;;2.30;;
51907;SDS011;39320;53.214;6.556;2023-07-22T03:46:39;4.32;;;2.70;;
51907;SDS011;39320;53.214;6.556;2023-07-22T03:49:05;5.95;;;2.53;;
51907;SDS011;39320;53.214;6.556;2023-07-22T03:51:31;4.35;;;2.40;;
51907;SDS011;39320;53.214;6.556;2023-07-22T03:53:58;4.10;;;2.60;;
51907;SDS011;39320;53.214;6.556;2023-07-22T03:56:24;5.70;;;2.55;;
51907;SDS011;39320;53.214;6.556;2023-07-22T03:58:50;4.80;;;2.85;;
51907;SDS011;39320;53.214;6.556;2023-07-22T04:01:16;4.07;;;2.58;;
51907;SDS011;39320;53.214;6.556;2023-07-22T04:03:42;5.15;;;2.63;;
51907;SDS011;39320;53.214;6.556;2023-07-22T04:06:07;4.82;;;2.50;;
51907;SDS011;39320;53.214;6.556;2023-07-22T04:08:33;3.75;;;2.30;;
51907;SDS011;39320;53.214;6.556;2023-07-22T04:10:59;3.97;;;2.30;;
51907;SDS011;39320;53.214;6.556;2023-07-22T04:13:27;3.72;;;1.98;;
51907;SDS011;39320;53.214;6.556;2023-07-22T04:15:53;3.75;;;2.42;;
51907;SDS011;39320;53.214;6.556;2023-07-22T04:18:20;4.47;;;2.53;;
51907;SDS011;39320;53.214;6.556;2023-07-22T04:20:46;3.10;;;2.35;;
51907;SDS011;39320;53.214;6.556;2023-07-22T04:23:13;4.25;;;2.15;;
51907;SDS011;39320;53.214;6.556;2023-07-22T04:25:39;2.97;;;2.45;;
51907;SDS011;39320;53.214;6.556;2023-07-22T04:28:06;2.83;;;2.03;;
51907;SDS011;39320;53.214;6.556;2023-07-22T04:30:33;4.63;;;2.13;;
51907;SDS011;39320;53.214;6.556;2023-07-22T04:32:59;4.05;;;2.40;;
51907;SDS011;39320;53.214;6.556;2023-07-22T04:35:25;4.30;;;2.47;;
51907;SDS011;39320;53.214;6.556;2023-07-22T04:37:51;3.78;;;2.28;;
51907;SDS011;39320;53.214;6.556;2023-07-22T04:40:17;3.83;;;2.47;;
51907;SDS011;39320;53.214;6.556;2023-07-22T04:42:44;5.65;;;3.05;;
51907;SDS011;39320;53.214;6.556;2023-07-22T04:45:11;3.80;;;2.80;;
51907;SDS011;39320;53.214;6.556;2023-07-22T04:47:37;4.10;;;2.70;;
51907;SDS011;39320;53.214;6.556;2023-07-22T04:50:07;5.10;;;2.80;;
51907;SDS011;39320;53.214;6.556;2023-07-22T04:52:36;3.47;;;2.65;;
51907;SDS011;39320;53.214;6.556;2023-07-22T04:55:02;4.88;;;2.88;;
51907;SDS011;39320;53.214;6.556;2023-07-22T04:57:43;4.65;;;3.10;;
51907;SDS011;39320;53.214;6.556;2023-07-22T05:00:13;4.38;;;3.05;;
51907;SDS011;39320;53.214;6.556;2023-07-22T05:02:44;4.45;;;2.70;;
51907;SDS011;39320;53.214;6.556;2023-07-22T05:05:15;4.65;;;2.85;;
51907;SDS011;39320;53.214;6.556;2023-07-22T05:07:41;4.55;;;2.90;;
51907;SDS011;39320;53.214;6.556;2023-07-22T05:10:08;4.65;;;3.28;;
51907;SDS011;39320;53.214;6.556;2023-07-22T05:12:40;4.47;;;2.72;;
51907;SDS011;39320;53.214;6.556;2023-07-22T05:15:07;5.15;;;3.75;;
51907;SDS011;39320;53.214;6.556;2023-07-22T05:17:34;4.60;;;3.25;;
51907;SDS011;39320;53.214;6.556;2023-07-22T05:20:00;4.38;;;3.17;;
51907;SDS011;39320;53.214;6.556;2023-07-22T05:22:26;3.92;;;3.00;;
51907;SDS011;39320;53.214;6.556;2023-07-22T05:24:51;5.75;;;3.25;;
51907;SDS011;39320;53.214;6.556;2023-07-22T05:27:17;3.80;;;2.85;;
51907;SDS011;39320;53.214;6.556;2023-07-22T05:29:43;4.22;;;3.40;;
51907;SDS011;39320;53.214;6.556;2023-07-22T05:32:10;4.32;;;3.13;;
51907;SDS011;39320;53.214;6.556;2023-07-22T05:34:36;4.97;;;3.25;;
51907;SDS011;39320;53.214;6.556;2023-07-22T05:37:02;5.57;;;3.47;;
51907;SDS011;39320;53.214;6.556;2023-07-22T05:39:28;5.40;;;3.40;;
51907;SDS011;39320;53.214;6.556;2023-07-22T05:41:54;4.88;;;3.60;;
51907;SDS011;39320;53.214;6.556;2023-07-22T05:44:20;5.05;;;3.50;;
51907;SDS011;39320;53.214;6.556;2023-07-22T05:46:46;5.32;;;3.67;;
51907;SDS011;39320;53.214;6.556;2023-07-22T05:49:12;4.20;;;3.28;;
51907;SDS011;39320;53.214;6.556;2023-07-22T05:51:37;5.10;;;3.65;;
51907;SDS011;39320;53.214;6.556;2023-07-22T05:54:03;5.93;;;4.20;;
51907;SDS011;39320;53.214;6.556;2023-07-22T05:56:29;5.70;;;3.80;;
51907;SDS011;39320;53.214;6.556;2023-07-22T05:58:55;5.90;;;3.58;;
51907;SDS011;39320;53.214;6.556;2023-07-22T06:01:21;5.57;;;3.60;;
51907;SDS011;39320;53.214;6.556;2023-07-22T06:03:48;4.75;;;3.80;;
51907;SDS011;39320;53.214;6.556;2023-07-22T06:06:13;5.70;;;4.25;;
51907;SDS011;39320;53.214;6.556;2023-07-22T06:08:39;6.13;;;3.88;;
51907;SDS011;39320;53.214;6.556;2023-07-22T06:11:05;4.45;;;3.80;;
51907;SDS011;39320;53.214;6.556;2023-07-22T06:13:31;4.72;;;3.97;;
51907;SDS011;39320;53.214;6.556;2023-07-22T06:15:56;6.13;;;4.50;;
51907;SDS011;39320;53.214;6.556;2023-07-22T06:18:22;6.45;;;3.60;;
51907;SDS011;39320;53.214;6.556;2023-07-22T06:20:48;5.13;;;4.22;;
51907;SDS011;39320;53.214;6.556;2023-07-22T06:23:15;5.15;;;3.53;;
51907;SDS011;39320;53.214;6.556;2023-07-22T06:25:41;5.88;;;4.40;;
51907;SDS011;39320;53.214;6.556;2023-07-22T06:28:06;7.65;;;4.00;;
51907;SDS011;39320;53.214;6.556;2023-07-22T06:30:33;10.38;;;4.28;;
51907;SDS011;39320;53.214;6.556;2023-07-22T06:32:58;6.07;;;4.55;;
51907;SDS011;39320;53.214;6.556;2023-07-22T06:35:24;5.32;;;4.18;;
51907;SDS011;39320;53.214;6.556;2023-07-22T06:37:50;7.32;;;4.18;;
51907;SDS011;39320;53.214;6.556;2023-07-22T06:40:16;7.65;;;4.85;;
51907;SDS011;39320;53.214;6.556;2023-07-22T06:42:42;6.07;;;4.47;;
51907;SDS011;39320;53.214;6.556;2023-07-22T06:45:08;7.90;;;4.80;;
51907;SDS011;39320;53.214;6.556;2023-07-22T06:47:35;6.82;;;5.03;;
51907;SDS011;39320;53.214;6.556;2023-07-22T06:50:02;7.60;;;5.00;;
51907;SDS011;39320;53.214;6.556;2023-07-22T06:52:29;6.57;;;4.47;;
51907;SDS011;39320;53.214;6.556;2023-07-22T06:54:56;7.68;;;5.45;;
51907;SDS011;39320;53.214;6.556;2023-07-22T06:57:21;7.82;;;5.07;;
51907;SDS011;39320;53.214;6.556;2023-07-22T06:59:47;8.05;;;4.82;;
51907;SDS011;39320;53.214;6.556;2023-07-22T07:02:15;6.00;;;5.07;;
51907;SDS011;39320;53.214;6.556;2023-07-22T07:04:41;6.40;;;4.55;;
51907;SDS011;39320;53.214;6.556;2023-07-22T07:07:07;6.85;;;5.20;;
51907;SDS011;39320;53.214;6.556;2023-07-22T07:09:32;5.97;;;4.60;;
51907;SDS011;39320;53.214;6.556;2023-07-22T07:11:59;6.00;;;4.78;;
51907;SDS011;39320;53.214;6.556;2023-07-22T07:14:25;6.53;;;5.30;;
51907;SDS011;39320;53.214;6.556;2023-07-22T07:16:51;6.65;;;4.95;;
51907;SDS011;39320;53.214;6.556;2023-07-22T07:19:17;6.68;;;5.18;;
51907;SDS011;39320;53.214;6.556;2023-07-22T07:21:42;6.65;;;4.72;;
51907;SDS011;39320;53.214;6.556;2023-07-22T07:24:08;7.25;;;4.47;;
51907;SDS011;39320;53.214;6.556;2023-07-22T07:26:33;5.85;;;4.97;;
51907;SDS011;39320;53.214;6.556;2023-07-22T07:28:59;8.23;;;5.50;;
51907;SDS011;39320;53.214;6.556;2023-07-22T07:31:25;8.77;;;5.65;;
51907;SDS011;39320;53.214;6.556;2023-07-22T07:33:51;6.70;;;5.38;;
51907;SDS011;39320;53.214;6.556;2023-07-22T07:36:17;7.43;;;4.95;;
51907;SDS011;39320;53.214;6.556;2023-07-22T07:38:43;6.90;;;4.80;;
51907;SDS011;39320;53.214;6.556;2023-07-22T07:41:09;7.05;;;4.85;;
51907;SDS011;39320;53.214;6.556;2023-07-22T07:43:42;8.00;;;5.07;;
51907;SDS011;39320;53.214;6.556;2023-07-22T07:48:51;6.10;;;5.13;;
51907;SDS011;39320;53.214;6.556;2023-07-22T07:51:19;7.05;;;5.88;;
51907;SDS011;39320;53.214;6.556;2023-07-22T07:53:46;8.00;;;5.90;;
51907;SDS011;39320;53.214;6.556;2023-07-22T07:56:12;8.10;;;5.97;;
51907;SDS011;39320;53.214;6.556;2023-07-22T07:58:39;8.20;;;5.20;;
51907;SDS011;39320;53.214;6.556;2023-07-22T08:01:05;8.10;;;5.38;;
51907;SDS011;39320;53.214;6.556;2023-07-22T08:03:32;7.35;;;5.72;;
51907;SDS011;39320;53.214;6.556;2023-07-22T08:05:58;7.07;;;5.63;;
51907;SDS011;39320;53.214;6.556;2023-07-22T08:08:24;7.70;;;5.40;;
51907;SDS011;39320;53.214;6.556;2023-07-22T08:10:59;9.18;;;4.95;;
51907;SDS011;39320;53.214;6.556;2023-07-22T08:13:29;6.60;;;4.72;;
51907;SDS011;39320;53.214;6.556;2023-07-22T08:16:03;6.22;;;4.68;;
51907;SDS011;39320;53.214;6.556;2023-07-22T08:18:31;5.78;;;4.20;;
51907;SDS011;39320;53.214;6.556;2023-07-22T08:20:58;6.97;;;4.80;;
51907;SDS011;39320;53.214;6.556;2023-07-22T08:23:24;5.82;;;4.55;;
51907;SDS011;39320;53.214;6.556;2023-07-22T08:25:50;5.88;;;4.78;;
51907;SDS011;39320;53.214;6.556;2023-07-22T08:28:16;7.97;;;4.43;;
51907;SDS011;39320;53.214;6.556;2023-07-22T08:30:45;6.88;;;4.10;;
51907;SDS011;39320;53.214;6.556;2023-07-22T08:33:13;6.18;;;4.25;;
51907;SDS011;39320;53.214;6.556;2023-07-22T08:35:44;5.63;;;4.25;;
51907;SDS011;39320;53.214;6.556;2023-07-22T08:38:12;5.63;;;4.28;;
51907;SDS011;39320;53.214;6.556;2023-07-22T08:40:39;6.07;;;4.80;;
51907;SDS011;39320;53.214;6.556;2023-07-22T08:43:06;5.10;;;3.15;;
51907;SDS011;39320;53.214;6.556;2023-07-22T08:45:34;6.90;;;4.00;;
51907;SDS011;39320;53.214;6.556;2023-07-22T08:48:06;4.75;;;4.00;;
51907;SDS011;39320;53.214;6.556;2023-07-22T08:50:42;4.82;;;3.67;;
51907;SDS011;39320;53.214;6.556;2023-07-22T08:53:19;5.57;;;3.70;;
51907;SDS011;39320;53.214;6.556;2023-07-22T08:55:46;5.00;;;3.78;;
51907;SDS011;39320;53.214;6.556;2023-07-22T08:58:13;5.95;;;4.10;;
51907;SDS011;39320;53.214;6.556;2023-07-22T09:00:39;4.18;;;3.78;;
51907;SDS011;39320;53.214;6.556;2023-07-22T09:03:05;5.40;;;3.58;;
51907;SDS011;39320;53.214;6.556;2023-07-22T09:05:32;4.53;;;3.33;;
51907;SDS011;39320;53.214;6.556;2023-07-22T09:07:58;5.13;;;3.55;;
51907;SDS011;39320;53.214;6.556;2023-07-22T09:10:27;5.20;;;3.35;;
51907;SDS011;39320;53.214;6.556;2023-07-22T09:12:53;4.78;;;3.63;;
51907;SDS011;39320;53.214;6.556;2023-07-22T09:15:19;5.10;;;3.08;;
51907;SDS011;39320;53.214;6.556;2023-07-22T09:17:46;4.43;;;3.05;;
51907;SDS011;39320;53.214;6.556;2023-07-22T09:20:13;3.80;;;3.40;;
51907;SDS011;39320;53.214;6.556;2023-07-22T09:22:43;4.15;;;2.90;;
51907;SDS011;39320;53.214;6.556;2023-07-22T09:25:17;3.72;;;2.92;;
51907;SDS011;39320;53.214;6.556;2023-07-22T09:27:45;3.45;;;2.63;;
51907;SDS011;39320;53.214;6.556;2023-07-22T09:30:22;4.70;;;2.75;;
51907;SDS011;39320;53.214;6.556;2023-07-22T09:32:52;5.35;;;3.35;;
51907;SDS011;39320;53.214;6.556;2023-07-22T09:35:22;5.47;;;3.15;;
51907;SDS011;39320;53.214;6.556;2023-07-22T09:37:50;5.90;;;4.40;;
51907;SDS011;39320;53.214;6.556;2023-07-22T09:42:45;5.70;;;4.10;;
51907;SDS011;39320;53.214;6.556;2023-07-22T09:45:11;7.25;;;4.60;;
51907;SDS011;39320;53.214;6.556;2023-07-22T09:47:44;4.57;;;4.00;;
51907;SDS011;39320;53.214;6.556;2023-07-22T09:50:11;5.90;;;4.63;;
51907;SDS011;39320;53.214;6.556;2023-07-22T09:52:42;5.85;;;4.93;;
51907;SDS011;39320;53.214;6.556;2023-07-22T09:55:18;6.13;;;4.80;;
51907;SDS011;39320;53.214;6.556;2023-07-22T09:57:57;5.97;;;4.60;;
51907;SDS011;39320;53.214;6.556;2023-07-22T10:00:24;7.10;;;5.28;;
51907;SDS011;39320;53.214;6.556;2023-07-22T10:02:55;5.25;;;4.20;;
51907;SDS011;39320;53.214;6.556;2023-07-22T10:05:22;5.82;;;4.53;;
51907;SDS011;39320;53.214;6.556;2023-07-22T10:07:54;4.85;;;3.72;;
51907;SDS011;39320;53.214;6.556;2023-07-22T10:10:25;5.90;;;4.03;;
51907;SDS011;39320;53.214;6.556;2023-07-22T10:13:12;5.03;;;3.67;;
51907;SDS011;39320;53.214;6.556;2023-07-22T10:15:38;5.13;;;4.53;;
51907;SDS011;39320;53.214;6.556;2023-07-22T10:18:04;4.63;;;4.07;;
51907;SDS011;39320;53.214;6.556;2023-07-22T10:20:30;5.05;;;4.15;;
51907;SDS011;39320;53.214;6.556;2023-07-22T10:22:59;6.03;;;4.28;;
51907;SDS011;39320;53.214;6.556;2023-07-22T10:25:26;4.95;;;4.35;;
51907;SDS011;39320;53.214;6.556;2023-07-22T10:27:52;5.07;;;4.32;;
51907;SDS011;39320;53.214;6.556;2023-07-22T10:30:19;6.22;;;4.30;;
51907;SDS011;39320;53.214;6.556;2023-07-22T10:32:45;5.35;;;4.65;;
51907;SDS011;39320;53.214;6.556;2023-07-22T10:43:10;6.80;;;4.38;;
51907;SDS011;39320;53.214;6.556;2023-07-22T10:45:40;5.88;;;3.88;;
51907;SDS011;39320;53.214;6.556;2023-07-22T10:48:07;5.38;;;4.28;;
51907;SDS011;39320;53.214;6.556;2023-07-22T10:50:45;5.40;;;4.28;;
51907;SDS011;39320;53.214;6.556;2023-07-22T10:56:06;6.35;;;4.45;;
51907;SDS011;39320;53.214;6.556;2023-07-22T11:09:48;5.85;;;4.18;;
51907;SDS011;39320;53.214;6.556;2023-07-22T11:12:14;4.88;;;3.75;;
51907;SDS011;39320;53.214;6.556;2023-07-22T11:14:48;4.57;;;3.75;;
51907;SDS011;39320;53.214;6.556;2023-07-22T11:17:16;4.00;;;3.28;;
51907;SDS011;39320;53.214;6.556;2023-07-22T11:19:55;4.85;;;3.55;;
51907;SDS011;39320;53.214;6.556;2023-07-22T11:22:22;4.78;;;4.10;;
51907;SDS011;39320;53.214;6.556;2023-07-22T11:24:48;4.95;;;4.10;;
51907;SDS011;39320;53.214;6.556;2023-07-22T11:27:14;5.18;;;4.07;;
51907;SDS011;39320;53.214;6.556;2023-07-22T11:29:40;3.95;;;3.55;;
51907;SDS011;39320;53.214;6.556;2023-07-22T11:32:06;5.15;;;3.55;;
51907;SDS011;39320;53.214;6.556;2023-07-22T11:34:40;4.35;;;3.45;;
51907;SDS011;39320;53.214;6.556;2023-07-22T11:37:06;4.50;;;3.38;;
51907;SDS011;39320;53.214;6.556;2023-07-22T11:39:32;3.75;;;3.25;;
51907;SDS011;39320;53.214;6.556;2023-07-22T11:42:00;3.83;;;3.42;;
51907;SDS011;39320;53.214;6.556;2023-07-22T11:44:28;6.13;;;3.67;;
51907;SDS011;39320;53.214;6.556;2023-07-22T11:52:01;6.13;;;4.85;;
51907;SDS011;39320;53.214;6.556;2023-07-22T11:54:43;4.78;;;4.28;;
51907;SDS011;39320;53.214;6.556;2023-07-22T11:57:14;5.35;;;4.80;;
51907;SDS011;39320;53.214;6.556;2023-07-22T11:59:56;6.20;;;5.40;;
51907;SDS011;39320;53.214;6.556;2023-07-22T12:02:26;6.95;;;5.18;;
51907;SDS011;39320;53.214;6.556;2023-07-22T12:05:02;5.40;;;4.90;;
51907;SDS011;39320;53.214;6.556;2023-07-22T12:07:33;6.22;;;4.70;;
51907;SDS011;39320;53.214;6.556;2023-07-22T12:10:00;5.72;;;5.10;;
51907;SDS011;39320;53.214;6.556;2023-07-22T12:12:36;5.72;;;4.93;;
51907;SDS011;39320;53.214;6.556;2023-07-22T12:15:15;5.78;;;5.15;;
51907;SDS011;39320;53.214;6.556;2023-07-22T12:20:15;6.00;;;5.07;;
51907;SDS011;39320;53.214;6.556;2023-07-22T12:22:42;6.78;;;5.35;;
51907;SDS011;39320;53.214;6.556;2023-07-22T12:25:08;6.53;;;5.43;;
51907;SDS011;39320;53.214;6.556;2023-07-22T12:27:34;7.00;;;5.47;;
51907;SDS011;39320;53.214;6.556;2023-07-22T12:30:01;5.53;;;4.93;;
51907;SDS011;39320;53.214;6.556;2023-07-22T12:32:28;6.03;;;5.43;;
51907;SDS011;39320;53.214;6.556;2023-07-22T12:34:54;5.55;;;4.95;;
51907;SDS011;39320;53.214;6.556;2023-07-22T12:37:19;6.90;;;5.72;;
51907;SDS011;39320;53.214;6.556;2023-07-22T12:39:45;5.88;;;5.28;;
51907;SDS011;39320;53.214;6.556;2023-07-22T12:42:11;6.75;;;6.13;;
51907;SDS011;39320;53.214;6.556;2023-07-22T12:44:36;6.85;;;6.15;;
51907;SDS011;39320;53.214;6.556;2023-07-22T12:47:02;8.63;;;6.45;;
51907;SDS011;39320;53.214;6.556;2023-07-22T12:49:28;7.80;;;6.65;;
51907;SDS011;39320;53.214;6.556;2023-07-22T12:51:54;6.47;;;5.88;;
51907;SDS011;39320;53.214;6.556;2023-07-22T12:54:20;7.07;;;6.15;;
51907;SDS011;39320;53.214;6.556;2023-07-22T12:56:46;7.90;;;6.57;;
51907;SDS011;39320;53.214;6.556;2023-07-22T12:59:12;7.85;;;5.93;;
51907;SDS011;39320;53.214;6.556;2023-07-22T13:01:37;6.93;;;5.93;;
51907;SDS011;39320;53.214;6.556;2023-07-22T13:04:06;6.85;;;5.68;;
51907;SDS011;39320;53.214;6.556;2023-07-22T13:06:31;8.15;;;6.45;;
51907;SDS011;39320;53.214;6.556;2023-07-22T13:08:57;6.13;;;5.53;;
51907;SDS011;39320;53.214;6.556;2023-07-22T13:11:25;6.90;;;6.20;;
51907;SDS011;39320;53.214;6.556;2023-07-22T13:13:51;6.43;;;5.20;;
51907;SDS011;39320;53.214;6.556;2023-07-22T13:16:17;6.10;;;5.03;;
51907;SDS011;39320;53.214;6.556;2023-07-22T13:18:43;7.57;;;5.93;;
51907;SDS011;39320;53.214;6.556;2023-07-22T13:21:09;6.93;;;6.18;;
51907;SDS011;39320;53.214;6.556;2023-07-22T13:23:35;9.05;;;5.70;;
51907;SDS011;39320;53.214;6.556;2023-07-22T13:26:01;6.47;;;5.65;;
51907;SDS011;39320;53.214;6.556;2023-07-22T13:28:28;5.95;;;5.32;;
51907;SDS011;39320;53.214;6.556;2023-07-22T13:30:54;6.22;;;5.63;;
51907;SDS011;39320;53.214;6.556;2023-07-22T13:33:20;6.57;;;5.28;;
51907;SDS011;39320;53.214;6.556;2023-07-22T13:35:45;6.75;;;5.15;;
51907;SDS011;39320;53.214;6.556;2023-07-22T13:38:11;6.32;;;5.72;;
51907;SDS011;39320;53.214;6.556;2023-07-22T13:40:37;7.93;;;6.05;;
51907;SDS011;39320;53.214;6.556;2023-07-22T13:43:03;6.70;;;6.00;;
51907;SDS011;39320;53.214;6.556;2023-07-22T13:45:28;6.45;;;5.70;;
51907;SDS011;39320;53.214;6.556;2023-07-22T13:47:54;7.22;;;6.10;;
51907;SDS011;39320;53.214;6.556;2023-07-22T13:50:20;6.63;;;5.80;;
51907;SDS011;39320;53.214;6.556;2023-07-22T13:52:46;7.82;;;7.05;;
51907;SDS011;39320;53.214;6.556;2023-07-22T13:55:11;7.55;;;6.35;;
51907;SDS011;39320;53.214;6.556;2023-07-22T13:57:37;6.85;;;5.97;;
51907;SDS011;39320;53.214;6.556;2023-07-22T14:00:03;8.02;;;6.63;;
51907;SDS011;39320;53.214;6.556;2023-07-22T14:02:33;7.00;;;6.28;;
51907;SDS011;39320;53.214;6.556;2023-07-22T14:05:00;6.80;;;6.20;;
51907;SDS011;39320;53.214;6.556;2023-07-22T14:07:25;6.65;;;6.05;;
51907;SDS011;39320;53.214;6.556;2023-07-22T14:09:51;6.75;;;6.05;;
51907;SDS011;39320;53.214;6.556;2023-07-22T14:12:18;6.47;;;5.88;;
51907;SDS011;39320;53.214;6.556;2023-07-22T14:14:45;6.97;;;6.25;;
51907;SDS011;39320;53.214;6.556;2023-07-22T14:17:10;8.13;;;6.15;;
51907;SDS011;39320;53.214;6.556;2023-07-22T14:19:40;5.95;;;4.75;;
51907;SDS011;39320;53.214;6.556;2023-07-22T14:22:06;6.63;;;5.72;;
51907;SDS011;39320;53.214;6.556;2023-07-22T14:24:33;7.00;;;5.80;;
51907;SDS011;39320;53.214;6.556;2023-07-22T14:26:59;6.55;;;5.60;;
51907;SDS011;39320;53.214;6.556;2023-07-22T14:29:25;6.68;;;5.68;;
51907;SDS011;39320;53.214;6.556;2023-07-22T14:31:51;6.35;;;5.72;;
51907;SDS011;39320;53.214;6.556;2023-07-22T14:34:17;6.05;;;5.45;;
51907;SDS011;39320;53.214;6.556;2023-07-22T14:36:42;6.40;;;5.78;;
51907;SDS011;39320;53.214;6.556;2023-07-22T14:39:09;7.55;;;6.05;;
51907;SDS011;39320;53.214;6.556;2023-07-22T14:41:35;6.15;;;5.38;;
51907;SDS011;39320;53.214;6.556;2023-07-22T14:44:00;7.05;;;5.72;;
51907;SDS011;39320;53.214;6.556;2023-07-22T14:46:26;6.38;;;5.78;;
51907;SDS011;39320;53.214;6.556;2023-07-22T14:48:52;7.38;;;6.65;;
51907;SDS011;39320;53.214;6.556;2023-07-22T14:51:18;7.35;;;6.60;;
51907;SDS011;39320;53.214;6.556;2023-07-22T14:53:43;8.73;;;7.82;;
51907;SDS011;39320;53.214;6.556;2023-07-22T14:56:09;9.18;;;7.95;;
51907;SDS011;39320;53.214;6.556;2023-07-22T14:58:35;8.57;;;6.93;;
51907;SDS011;39320;53.214;6.556;2023-07-22T15:01:01;7.25;;;6.47;;
51907;SDS011;39320;53.214;6.556;2023-07-22T15:03:26;6.78;;;5.90;;
51907;SDS011;39320;53.214;6.556;2023-07-22T15:05:52;7.75;;;5.47;;
51907;SDS011;39320;53.214;6.556;2023-07-22T15:08:18;5.63;;;4.20;;
51907;SDS011;39320;53.214;6.556;2023-07-22T15:10:44;5.45;;;3.90;;
51907;SDS011;39320;53.214;6.556;2023-07-22T15:13:09;5.28;;;4.45;;
51907;SDS011;39320;53.214;6.556;2023-07-22T15:15:35;2.83;;;2.47;;
51907;SDS011;39320;53.214;6.556;2023-07-22T15:18:01;4.63;;;2.63;;
51907;SDS011;39320;53.214;6.556;2023-07-22T15:20:26;3.70;;;3.00;;
51907;SDS011;39320;53.214;6.556;2023-07-22T15:22:52;3.80;;;2.70;;